createdAt,value
2018-07-07T00:00:24.789Z,72.27
2018-07-07T00:02:52.885Z,72.38
2018-07-07T00:05:20.971Z,73.00
2018-07-07T00:07:49.068Z,72.64
2018-07-07T00:10:17.345Z,72.24
2018-07-07T00:12:45.753Z,72.71
2018-07-07T00:15:16.060Z,72.57
2018-07-07T00:17:44.660Z,73.03
2018-07-07T00:20:12.846Z,73.06
2018-07-07T00:22:40.955Z,73.28
2018-07-07T00:25:13.059Z,72.98
2018-07-07T00:27:41.170Z,73.12
2018-07-07T00:30:09.265Z,72.89
2018-07-07T00:32:37.356Z,72.96
2018-07-07T00:35:05.447Z,73.08
2018-07-07T00:37:33.509Z,72.83
2018-07-07T00:40:01.612Z,73.12
2018-07-07T00:42:29.825Z,73.40
2018-07-07T00:44:57.960Z,73.06
2018-07-07T00:47:26.054Z,73.11
2018-07-07T00:49:54.120Z,73.07
2018-07-07T00:52:22.234Z,73.09
2018-07-07T00:54:50.344Z,73.23
2018-07-07T00:57:18.447Z,73.50
2018-07-07T00:59:46.556Z,73.76
2018-07-07T01:02:18.663Z,73.76
2018-07-07T01:04:47.442Z,73.80
2018-07-07T01:07:15.535Z,74.08
2018-07-07T01:09:43.655Z,73.49
2018-07-07T01:12:11.739Z,73.81
2018-07-07T01:14:39.885Z,73.77
2018-07-07T01:17:07.997Z,74.03
2018-07-07T01:19:36.191Z,73.95
2018-07-07T01:22:06.067Z,73.71
2018-07-07T01:24:34.161Z,73.77
2018-07-07T01:27:02.233Z,74.52
2018-07-07T01:29:30.336Z,74.35
2018-07-07T01:31:58.438Z,73.98
2018-07-07T01:34:26.561Z,74.12
2018-07-07T01:36:54.660Z,74.03
2018-07-07T01:39:22.807Z,74.03
2018-07-07T01:41:50.939Z,74.40
2018-07-07T01:44:19.071Z,74.73
2018-07-07T01:46:47.161Z,74.32
2018-07-07T01:49:15.260Z,74.38
2018-07-07T01:51:43.342Z,74.71
2018-07-07T01:54:11.439Z,74.58
2018-07-07T01:56:39.504Z,74.75
2018-07-07T01:59:07.680Z,74.87
2018-07-07T02:01:36.629Z,74.79
2018-07-07T02:04:04.724Z,74.70
2018-07-07T02:06:33.089Z,74.89
2018-07-07T02:09:01.296Z,75.45
2018-07-07T02:11:29.411Z,75.22
2018-07-07T02:13:57.524Z,75.35
2018-07-07T02:16:25.618Z,75.87
2018-07-07T02:18:53.802Z,75.66
2018-07-07T02:21:21.880Z,75.45
2018-07-07T02:23:50.012Z,75.46
2018-07-07T02:26:18.147Z,75.24
2018-07-07T02:28:46.264Z,75.18
2018-07-07T02:31:14.396Z,75.80
2018-07-07T02:33:42.476Z,75.78
2018-07-07T02:36:10.596Z,75.94
2018-07-07T02:38:38.697Z,76.01
2018-07-07T02:41:06.800Z,76.13
2018-07-07T02:43:34.887Z,76.04
2018-07-07T02:46:02.965Z,76.54
2018-07-07T02:48:31.085Z,76.26
2018-07-07T02:50:59.147Z,76.17
2018-07-07T02:53:27.292Z,76.31
2018-07-07T02:55:55.403Z,76.14
2018-07-07T02:58:23.490Z,75.99
2018-07-07T03:00:51.606Z,76.26
2018-07-07T03:03:19.797Z,76.11
2018-07-07T03:05:47.847Z,75.88
2018-07-07T03:08:15.938Z,76.11
2018-07-07T03:10:44.022Z,75.95
2018-07-07T03:13:12.136Z,76.32
2018-07-07T03:15:40.225Z,75.94
2018-07-07T03:18:08.304Z,75.49
2018-07-07T03:20:36.421Z,75.76
2018-07-07T03:23:04.536Z,75.41
2018-07-07T03:25:32.630Z,75.22
2018-07-07T03:28:00.758Z,75.20
2018-07-07T03:30:28.857Z,75.33
2018-07-07T03:32:56.998Z,75.17
2018-07-07T03:35:25.081Z,74.90
2018-07-07T03:37:53.198Z,74.80
2018-07-07T03:40:21.290Z,74.87
2018-07-07T03:42:49.388Z,74.99
2018-07-07T03:45:17.491Z,74.93
2018-07-07T03:47:45.595Z,74.96
2018-07-07T03:50:13.729Z,74.59
2018-07-07T03:52:41.842Z,74.69
2018-07-07T03:55:09.967Z,74.78
2018-07-07T03:57:38.096Z,74.57
2018-07-07T04:00:06.215Z,74.43
2018-07-07T04:02:34.308Z,74.34
2018-07-07T04:05:02.382Z,74.27
2018-07-07T04:07:30.454Z,74.54
2018-07-07T04:09:58.546Z,74.59
2018-07-07T04:12:26.693Z,74.29
2018-07-07T04:14:54.816Z,73.77
2018-07-07T04:17:22.870Z,74.06
2018-07-07T04:19:50.991Z,73.91
2018-07-07T04:22:19.140Z,73.77
2018-07-07T04:24:47.222Z,73.24
2018-07-07T04:27:15.350Z,73.18
2018-07-07T04:29:43.460Z,72.75
2018-07-07T04:32:11.590Z,72.70
2018-07-07T04:34:39.715Z,72.19
2018-07-07T04:37:07.780Z,72.38
2018-07-07T04:39:35.876Z,71.88
2018-07-07T04:42:04.014Z,70.14
2018-07-07T04:44:32.150Z,66.70
2018-07-07T04:47:00.237Z,64.74
2018-07-07T04:49:28.410Z,64.29
2018-07-07T04:51:56.529Z,66.50
2018-07-07T04:54:24.629Z,66.70
2018-07-07T04:56:52.732Z,66.23
2018-07-07T04:59:20.829Z,65.88
2018-07-07T05:01:48.925Z,65.67
2018-07-07T05:04:17.037Z,63.39
2018-07-07T05:06:45.139Z,63.17
2018-07-07T05:09:13.341Z,61.92
2018-07-07T05:11:41.455Z,55.58
2018-07-07T05:14:09.588Z,50.86
2018-07-07T05:16:37.669Z,48.39
2018-07-07T05:19:05.801Z,46.67
2018-07-07T05:21:33.883Z,46.34
2018-07-07T05:24:01.965Z,46.85
2018-07-07T05:26:30.113Z,44.27
2018-07-07T05:28:58.202Z,42.04
2018-07-07T05:31:26.304Z,44.63
2018-07-07T05:33:54.445Z,44.77
2018-07-07T05:36:22.562Z,44.36
2018-07-07T05:38:50.704Z,42.98
2018-07-07T05:41:18.850Z,41.35
2018-07-07T05:43:46.965Z,41.21
2018-07-07T05:46:15.076Z,40.96
2018-07-07T05:48:43.155Z,42.66
2018-07-07T05:51:11.266Z,41.94
2018-07-07T05:53:39.451Z,42.40
2018-07-07T05:56:07.551Z,41.84
2018-07-07T05:58:35.650Z,41.06
2018-07-07T06:01:03.730Z,41.14
2018-07-07T06:03:31.831Z,42.09
2018-07-07T06:05:59.902Z,43.97
2018-07-07T06:08:28.142Z,41.81
2018-07-07T06:10:56.284Z,42.01
2018-07-07T06:13:24.376Z,40.89
2018-07-07T06:15:52.487Z,40.58
2018-07-07T06:18:20.693Z,39.65
2018-07-07T06:20:48.807Z,41.34
2018-07-07T06:23:16.933Z,43.82
2018-07-07T06:25:45.066Z,42.14
2018-07-07T06:28:13.176Z,41.38
2018-07-07T06:30:41.295Z,40.16
2018-07-07T06:33:09.397Z,39.53
2018-07-07T06:35:37.507Z,40.32
2018-07-07T06:38:06.172Z,37.59
2018-07-07T06:40:34.323Z,37.91
2018-07-07T06:43:02.478Z,37.50
2018-07-07T06:45:30.604Z,37.04
2018-07-07T06:47:58.707Z,35.40
2018-07-07T06:50:26.880Z,35.54
2018-07-07T06:52:55.092Z,34.99
2018-07-07T06:55:23.191Z,33.59
2018-07-07T06:57:51.329Z,34.91
2018-07-07T07:00:19.444Z,36.13
2018-07-07T07:02:47.586Z,35.86
2018-07-07T07:05:15.710Z,36.77
2018-07-07T07:07:43.855Z,35.87
2018-07-07T07:10:11.976Z,35.56
2018-07-07T07:12:40.121Z,34.86
2018-07-07T07:15:08.221Z,35.50
2018-07-07T07:17:36.394Z,33.20
2018-07-07T07:20:04.542Z,35.38
2018-07-07T07:22:32.684Z,37.34
2018-07-07T07:25:00.916Z,34.69
2018-07-07T07:27:29.556Z,34.09
2018-07-07T07:29:57.670Z,33.86
2018-07-07T07:32:25.778Z,33.12
2018-07-07T07:34:54.840Z,35.27
2018-07-07T07:37:23.033Z,34.34
2018-07-07T07:39:51.120Z,33.67
2018-07-07T07:42:19.232Z,34.79
2018-07-07T07:44:47.375Z,33.35
2018-07-07T07:47:15.636Z,34.01
2018-07-07T07:49:43.760Z,34.25
2018-07-07T07:52:11.891Z,36.02
2018-07-07T07:54:40.033Z,36.96
2018-07-07T07:57:08.167Z,36.15
2018-07-07T07:59:36.290Z,35.86
2018-07-07T08:02:04.419Z,34.91
2018-07-07T08:04:32.547Z,35.14
2018-07-07T08:07:00.675Z,35.20
2018-07-07T08:09:28.846Z,33.79
2018-07-07T08:11:56.963Z,33.26
2018-07-07T08:14:25.134Z,33.67
2018-07-07T08:16:53.288Z,33.88
2018-07-07T08:19:21.430Z,35.37
2018-07-07T08:21:49.571Z,33.02
2018-07-07T08:24:17.760Z,34.34
2018-07-07T08:26:45.884Z,33.27
2018-07-07T08:29:14.015Z,34.21
2018-07-07T08:31:42.136Z,32.50
2018-07-07T08:34:10.269Z,34.07
2018-07-07T08:36:38.432Z,33.32
2018-07-07T08:39:06.619Z,32.72
2018-07-07T08:41:34.768Z,33.25
2018-07-07T08:44:02.887Z,34.84
2018-07-07T08:46:31.031Z,34.26
2018-07-07T08:48:59.116Z,34.89
2018-07-07T08:51:27.209Z,33.76
2018-07-07T08:53:55.316Z,34.09
2018-07-07T08:56:23.441Z,33.32
2018-07-07T08:58:51.542Z,33.15
2018-07-07T09:01:19.636Z,34.59
2018-07-07T09:03:47.784Z,35.59
2018-07-07T09:06:15.887Z,35.73
2018-07-07T09:08:44.044Z,35.66
2018-07-07T09:11:12.425Z,35.51
2018-07-07T09:13:40.504Z,34.68
2018-07-07T09:16:08.600Z,36.59
2018-07-07T09:18:36.680Z,35.79
2018-07-07T09:21:04.812Z,35.03
2018-07-07T09:23:32.905Z,35.47
2018-07-07T09:26:00.998Z,34.37
2018-07-07T09:28:29.066Z,35.18
2018-07-07T09:30:57.187Z,35.87
2018-07-07T09:33:25.316Z,36.51
2018-07-07T09:35:53.436Z,35.41
2018-07-07T09:38:21.536Z,37.14
2018-07-07T09:40:49.631Z,36.89
2018-07-07T09:43:17.777Z,35.86
2018-07-07T09:45:45.923Z,36.40
2018-07-07T09:48:14.055Z,35.32
2018-07-07T09:50:42.129Z,38.20
2018-07-07T09:53:10.292Z,37.79
2018-07-07T09:55:38.388Z,37.03
2018-07-07T09:58:06.533Z,37.60
2018-07-07T10:00:40.520Z,38.13
2018-07-07T10:03:08.701Z,36.12
2018-07-07T10:05:37.115Z,36.25
2018-07-07T10:08:05.445Z,36.28
2018-07-07T10:10:33.962Z,36.91
2018-07-07T10:13:02.176Z,37.55
2018-07-07T10:15:30.352Z,36.56
2018-07-07T10:17:58.466Z,37.98
2018-07-07T10:20:26.782Z,40.27
2018-07-07T10:22:54.883Z,39.21
2018-07-07T10:25:23.004Z,38.86
2018-07-07T10:27:52.223Z,39.70
2018-07-07T10:30:20.442Z,40.18
2018-07-07T10:32:48.645Z,38.38
2018-07-07T10:35:16.753Z,38.44
2018-07-07T10:37:44.857Z,39.21
2018-07-07T10:40:12.984Z,38.91
2018-07-07T10:42:41.108Z,39.78
2018-07-07T10:45:09.254Z,39.96
2018-07-07T10:47:37.368Z,39.36
2018-07-07T10:50:05.470Z,39.10
2018-07-07T10:52:33.582Z,39.32
2018-07-07T10:55:01.738Z,40.05
2018-07-07T10:57:29.821Z,39.47
2018-07-07T10:59:58.064Z,39.37
2018-07-07T11:02:26.151Z,39.47
2018-07-07T11:04:54.272Z,39.15
2018-07-07T11:07:22.351Z,39.44
2018-07-07T11:09:50.428Z,39.96
2018-07-07T11:12:18.532Z,39.15
2018-07-07T11:14:46.718Z,38.37
2018-07-07T11:17:14.891Z,40.12
2018-07-07T11:19:42.982Z,40.33
2018-07-07T11:22:11.116Z,40.97
2018-07-07T11:24:40.167Z,41.13
2018-07-07T11:27:08.600Z,40.27
2018-07-07T11:29:36.696Z,39.19
2018-07-07T11:32:04.766Z,39.59
2018-07-07T11:34:32.928Z,37.91
2018-07-07T11:37:01.148Z,39.19
2018-07-07T11:39:29.197Z,38.51
2018-07-07T11:41:57.323Z,39.40
2018-07-07T11:44:25.420Z,39.39
2018-07-07T11:46:53.571Z,40.48
2018-07-07T11:49:21.682Z,40.41
2018-07-07T11:51:49.797Z,40.79
2018-07-07T11:54:17.952Z,40.03
2018-07-07T11:56:46.020Z,39.99
2018-07-07T11:59:14.092Z,39.30
2018-07-07T12:01:42.240Z,39.79
2018-07-07T12:04:10.315Z,40.00
2018-07-07T12:06:38.479Z,40.70
2018-07-07T12:09:07.150Z,40.03
2018-07-07T12:11:35.310Z,40.49
2018-07-07T12:14:03.441Z,40.14
2018-07-07T12:16:31.513Z,38.75
2018-07-07T12:18:59.638Z,38.63
2018-07-07T12:21:27.720Z,39.17
2018-07-07T12:23:55.821Z,39.46
2018-07-07T12:26:23.921Z,39.59
2018-07-07T12:28:52.368Z,39.97
2018-07-07T12:31:20.563Z,41.77
2018-07-07T12:33:48.682Z,41.71
2018-07-07T12:36:16.818Z,41.23
2018-07-07T12:38:44.955Z,41.47
2018-07-07T12:41:13.073Z,41.65
2018-07-07T12:43:41.217Z,41.24
2018-07-07T12:46:09.316Z,40.95
2018-07-07T12:48:37.497Z,41.61
2018-07-07T12:51:05.682Z,40.38
2018-07-07T12:53:33.813Z,41.45
2018-07-07T12:56:01.990Z,42.11
2018-07-07T12:58:30.081Z,42.46
2018-07-07T13:00:58.188Z,42.43
2018-07-07T13:03:26.281Z,42.40
2018-07-07T13:05:54.400Z,41.50
2018-07-07T13:08:22.486Z,42.47
2018-07-07T13:10:50.568Z,41.08
2018-07-07T13:13:18.676Z,41.42
2018-07-07T13:15:46.786Z,41.02
2018-07-07T13:18:14.872Z,40.70
2018-07-07T13:20:42.995Z,41.88
2018-07-07T13:23:11.077Z,41.44
2018-07-07T13:25:39.193Z,41.67
2018-07-07T13:28:07.271Z,42.25
2018-07-07T13:30:35.379Z,42.11
2018-07-07T13:33:03.494Z,41.48
2018-07-07T13:35:31.613Z,41.85
2018-07-07T13:37:59.724Z,41.49
2018-07-07T13:40:27.824Z,41.27
2018-07-07T13:42:55.929Z,42.37
2018-07-07T13:45:24.080Z,42.36
2018-07-07T13:47:52.157Z,41.59
2018-07-07T13:50:20.303Z,41.52
2018-07-07T13:52:48.452Z,42.34
2018-07-07T13:55:16.544Z,41.61
2018-07-07T13:57:44.636Z,41.25
2018-07-07T14:00:12.724Z,41.87
2018-07-07T14:02:40.859Z,41.41
2018-07-07T14:05:09.244Z,41.00
2018-07-07T14:07:37.342Z,41.86
2018-07-07T14:10:05.725Z,42.04
2018-07-07T14:12:33.860Z,42.67
2018-07-07T14:15:02.062Z,42.40
2018-07-07T14:17:30.211Z,41.60
2018-07-07T14:19:58.286Z,42.40
2018-07-07T14:22:27.230Z,42.36
2018-07-07T14:24:55.335Z,42.04
2018-07-07T14:27:23.981Z,42.96
2018-07-07T14:29:52.106Z,43.74
2018-07-07T14:32:20.204Z,42.75
2018-07-07T14:34:48.324Z,42.34
2018-07-07T14:37:16.424Z,43.20
2018-07-07T14:39:56.231Z,43.03
2018-07-07T14:42:35.068Z,42.72
2018-07-07T14:45:08.268Z,42.45
2018-07-07T14:47:36.322Z,42.32
2018-07-07T14:50:04.430Z,42.73
2018-07-07T14:52:32.513Z,42.96
2018-07-07T14:55:00.629Z,43.92
2018-07-07T14:57:28.782Z,43.27
2018-07-07T14:59:56.876Z,44.55
2018-07-07T15:02:25.051Z,44.68
2018-07-07T15:04:53.160Z,44.28
2018-07-07T15:07:21.272Z,44.25
2018-07-07T15:09:49.399Z,44.20
2018-07-07T15:12:17.512Z,43.37
2018-07-07T15:14:45.641Z,43.97
2018-07-07T15:17:13.718Z,44.32
2018-07-07T15:19:42.731Z,44.30
2018-07-07T15:22:10.911Z,43.82
2018-07-07T15:24:39.206Z,44.49
2018-07-07T15:27:07.314Z,45.10
2018-07-07T15:29:35.550Z,44.17
2018-07-07T15:32:03.756Z,44.64
2018-07-07T15:34:31.885Z,45.17
2018-07-07T15:37:00.038Z,45.20
2018-07-07T15:39:28.192Z,44.73
2018-07-07T15:41:56.358Z,45.43
2018-07-07T15:44:24.442Z,45.70
2018-07-07T15:46:52.790Z,45.75
2018-07-07T15:49:20.944Z,46.45
2018-07-07T15:51:49.038Z,46.84
2018-07-07T15:54:17.165Z,46.94
2018-07-07T15:56:45.293Z,46.91
2018-07-07T15:59:13.376Z,46.78
2018-07-07T16:01:41.480Z,47.58
2018-07-07T16:04:09.607Z,46.92
2018-07-07T16:06:37.754Z,47.42
2018-07-07T16:09:06.679Z,47.51
2018-07-07T16:11:35.038Z,47.66
2018-07-07T16:14:03.165Z,48.05
2018-07-07T16:16:31.302Z,47.58
2018-07-07T16:18:59.462Z,48.28
2018-07-07T16:21:27.586Z,47.12
2018-07-07T16:23:55.709Z,47.75
2018-07-07T16:26:23.844Z,47.42
2018-07-07T16:28:52.288Z,47.40
2018-07-07T16:31:20.425Z,48.16
2018-07-07T16:33:48.523Z,47.84
2018-07-07T16:36:16.666Z,48.19
2018-07-07T16:38:44.826Z,47.87
2018-07-07T16:41:12.931Z,47.90
2018-07-07T16:43:41.303Z,48.29
2018-07-07T16:46:09.574Z,47.39
2018-07-07T16:48:37.688Z,46.93
2018-07-07T16:51:05.940Z,47.58
2018-07-07T16:53:34.302Z,48.14
2018-07-07T16:56:02.520Z,49.04
2018-07-07T16:58:30.658Z,49.22
2018-07-07T17:00:58.875Z,48.63
2018-07-07T17:03:27.015Z,48.84
2018-07-07T17:05:55.139Z,50.10
2018-07-07T17:08:23.225Z,49.24
2018-07-07T17:10:51.352Z,49.17
2018-07-07T17:13:19.455Z,49.14
2018-07-07T17:15:47.601Z,49.66
2018-07-07T17:18:15.742Z,49.34
2018-07-07T17:20:43.888Z,49.64
2018-07-07T17:23:11.964Z,50.29
2018-07-07T17:25:40.236Z,49.78
2018-07-07T17:28:08.492Z,50.23
2018-07-07T17:30:36.605Z,50.55
2018-07-07T17:33:04.702Z,50.39
2018-07-07T17:35:33.057Z,51.00
2018-07-07T17:38:01.208Z,51.72
2018-07-07T17:40:29.341Z,51.64
2018-07-07T17:42:57.454Z,52.29
2018-07-07T17:45:25.577Z,52.59
2018-07-07T17:47:53.907Z,53.12
2018-07-07T17:50:22.007Z,53.23
2018-07-07T17:52:50.170Z,53.14
2018-07-07T17:55:18.277Z,53.12
2018-07-07T17:57:46.399Z,53.10
2018-07-07T18:00:14.606Z,53.07
2018-07-07T18:02:42.721Z,53.00
2018-07-07T18:05:10.817Z,53.34
2018-07-07T18:07:38.910Z,54.03
2018-07-07T18:10:07.030Z,54.15
2018-07-07T18:12:35.235Z,54.58
2018-07-07T18:15:03.369Z,54.62
2018-07-07T18:17:31.468Z,54.64
2018-07-07T18:19:59.600Z,54.41
2018-07-07T18:22:27.697Z,54.36
2018-07-07T18:24:55.799Z,55.05
2018-07-07T18:27:23.960Z,55.40
2018-07-07T18:29:52.043Z,54.96
2018-07-07T18:32:20.138Z,55.64
2018-07-07T18:34:48.226Z,55.08
2018-07-07T18:37:16.337Z,55.71
2018-07-07T18:39:44.453Z,55.32
2018-07-07T18:42:12.540Z,55.89
2018-07-07T18:44:40.692Z,55.94
2018-07-07T18:47:08.782Z,55.74
2018-07-07T18:49:38.193Z,55.58
2018-07-07T18:52:06.383Z,55.94
2018-07-07T18:54:34.549Z,55.86
2018-07-07T18:57:02.649Z,56.42
2018-07-07T18:59:30.719Z,57.10
2018-07-07T19:01:58.841Z,56.95
2018-07-07T19:04:26.922Z,57.46
2018-07-07T19:06:55.076Z,57.47
2018-07-07T19:09:23.208Z,57.67
2018-07-07T19:11:51.300Z,57.67
2018-07-07T19:14:19.472Z,58.20
2018-07-07T19:16:47.572Z,58.23
2018-07-07T19:19:15.738Z,59.20
2018-07-07T19:21:49.099Z,59.56
2018-07-07T19:24:22.524Z,59.16
2018-07-07T19:26:52.067Z,59.95
2018-07-07T19:29:21.068Z,60.02
2018-07-07T19:31:54.616Z,59.70
2018-07-07T19:34:27.987Z,60.28
2018-07-07T19:37:01.404Z,60.42
2018-07-07T19:39:29.490Z,59.97
2018-07-07T19:41:58.123Z,60.70
2018-07-07T19:44:26.246Z,60.51
2018-07-07T19:46:55.216Z,60.70
2018-07-07T19:49:23.314Z,61.09
2018-07-07T19:51:51.469Z,61.39
2018-07-07T19:54:19.600Z,61.34
2018-07-07T19:56:47.709Z,61.40
2018-07-07T19:59:15.832Z,62.03
2018-07-07T20:01:43.933Z,61.77
2018-07-07T20:04:12.031Z,61.62
2018-07-07T20:06:40.131Z,62.30
2018-07-07T20:09:08.453Z,62.61
2018-07-07T20:11:36.549Z,62.48
2018-07-07T20:14:04.650Z,62.83
2018-07-07T20:16:40.860Z,63.19
2018-07-07T20:19:17.592Z,63.03
2018-07-07T20:21:53.974Z,63.02
2018-07-07T20:24:23.405Z,63.11
2018-07-07T20:26:56.940Z,63.19
2018-07-07T20:29:25.054Z,63.45
2018-07-07T20:31:54.563Z,63.69
2018-07-07T20:34:25.707Z,63.92
2018-07-07T20:36:54.201Z,64.28
2018-07-07T20:39:22.492Z,64.69
2018-07-07T20:41:51.164Z,64.57
2018-07-07T20:44:19.661Z,64.61
2018-07-07T20:46:48.145Z,64.53
2018-07-07T20:49:16.260Z,65.18
2018-07-07T20:51:44.395Z,65.26
2018-07-07T20:54:12.504Z,65.49
2018-07-07T20:56:40.639Z,65.23
2018-07-07T20:59:08.751Z,65.13
2018-07-07T21:01:36.865Z,65.42
2018-07-07T21:04:04.995Z,66.50
2018-07-07T21:06:33.891Z,65.76
2018-07-07T21:09:02.050Z,65.85
2018-07-07T21:11:30.201Z,66.24
2018-07-07T21:13:58.348Z,66.04
2018-07-07T21:16:26.470Z,66.44
2018-07-07T21:18:55.103Z,66.68
2018-07-07T21:21:23.459Z,66.56
2018-07-07T21:23:51.551Z,67.09
2018-07-07T21:26:19.733Z,67.03
2018-07-07T21:28:47.845Z,67.39
2018-07-07T21:31:15.960Z,67.55
2018-07-07T21:33:44.102Z,68.31
2018-07-07T21:36:12.247Z,68.45
2018-07-07T21:38:40.391Z,67.86
2018-07-07T21:41:08.513Z,68.31
2018-07-07T21:43:36.619Z,68.29
2018-07-07T21:46:04.768Z,68.70
2018-07-07T21:48:32.901Z,68.70
2018-07-07T21:51:01.011Z,69.12
2018-07-07T21:53:29.416Z,69.10
2018-07-07T21:55:57.498Z,69.43
2018-07-07T21:58:27.190Z,69.16
2018-07-07T22:01:10.957Z,69.31
2018-07-07T22:03:44.836Z,68.84
2018-07-07T22:06:13.939Z,68.97
2018-07-07T22:08:42.017Z,69.29
2018-07-07T22:11:10.120Z,69.74
2018-07-07T22:13:38.279Z,69.63
2018-07-07T22:16:06.423Z,70.02
2018-07-07T22:18:34.566Z,69.95
2018-07-07T22:21:14.126Z,70.23
2018-07-07T22:23:42.259Z,70.79
2018-07-07T22:26:10.396Z,70.77
2018-07-07T22:28:38.493Z,71.16
2018-07-07T22:31:06.637Z,71.13
2018-07-07T22:33:34.770Z,71.33
2018-07-07T22:36:08.259Z,71.46
2018-07-07T22:38:41.752Z,71.75
2018-07-07T22:41:09.832Z,71.33
2018-07-07T22:43:37.962Z,71.43
2018-07-07T22:46:06.166Z,71.35
2018-07-07T22:48:34.256Z,71.89
2018-07-07T22:51:02.380Z,72.01
2018-07-07T22:53:30.509Z,72.12
2018-07-07T22:55:58.658Z,72.17
2018-07-07T22:58:26.792Z,72.04
2018-07-07T23:00:54.917Z,72.09
2018-07-07T23:03:23.040Z,72.25
2018-07-07T23:05:51.155Z,72.60
2018-07-07T23:08:19.338Z,72.42
2018-07-07T23:10:47.392Z,72.59
2018-07-07T23:13:15.503Z,72.82
2018-07-07T23:15:43.611Z,73.08
2018-07-07T23:18:11.690Z,73.17
2018-07-07T23:20:39.753Z,73.17
2018-07-07T23:23:07.840Z,73.01
2018-07-07T23:25:35.980Z,72.90
2018-07-07T23:28:04.076Z,73.01
2018-07-07T23:30:32.191Z,72.72
2018-07-07T23:33:00.301Z,72.79
2018-07-07T23:35:28.400Z,72.55
2018-07-07T23:37:56.466Z,73.37
2018-07-07T23:40:24.555Z,72.94
2018-07-07T23:42:52.641Z,73.27
2018-07-07T23:45:20.756Z,73.22
2018-07-07T23:47:48.833Z,73.15
2018-07-07T23:50:16.903Z,73.65
2018-07-07T23:52:45.019Z,73.42
2018-07-07T23:55:13.137Z,73.22
2018-07-07T23:57:41.234Z,73.61
